Saffet Bey — TCUZ — position and weather

sailwx.info

Track history (hours):
 
Tides and Currents Weather Stations Pressure Air Temp Water Temp Dewpoint Dewpoint Depression Visibility Wind Speed Wind Dir Waves Ship Positions

Saffet Bey

Last reported at 2014-Sep-29 10:07 UTC. Time now 2014-Oct-02 16:35 UTC.
Position N 36°44' E 023°50'.

Length 164 m; draft 7 m.

Type: Cargo ship. MMSI: 271000419.

Date/timePositionNaut miles runAvg speedWind from/ knotsBaromVisibWave heightAir tempDewpointWater temp
2014-Sep-29 10:07N 36°44' E 023°50'1115.4
2014-Sep-29 09:25N 36°49' E 024°01'1315.3
2014-Sep-29 08:34N 36°57' E 024°15'1615.8
2014-Sep-29 07:32N 37°05' E 024°32'1515.4
2014-Sep-29 06:34N 37°14' E 024°47'1616.0
2014-Sep-29 05:34N 37°24' E 025°03'1716.5
2014-Sep-29 04:33N 37°34' E 025°20'1515.4
2014-Sep-29 03:34N 37°45' E 025°34'18 0.9
2014-Sep-28 07:32N 37°33' E 025°17'10 9.9
2014-Sep-28 06:33N 37°27' E 025°08'1111.5
2014-Sep-28 05:33N 37°20' E 024°56'1212.1
2014-Sep-28 04:33N 37°12' E 024°44'1311.9
2014-Sep-28 03:26N 37°04' E 024°31'1112.1
2014-Sep-28 02:33N 36°58' E 024°20'1212.2
2014-Sep-28 01:33N 36°52' E 024°07'1211.9
2014-Sep-28 00:33N 36°46' E 023°54'1312.0
2014-Sep-27 23:26N 36°39' E 023°40'  
2014-Sep-22 10:15N 36°32' E 023°26'6315.4
2014-Sep-22 06:07N 37°06' E 024°34'914.8
2014-Sep-22 05:32N 37°11' E 024°42'1515.3
2014-Sep-22 04:33N 37°20' E 024°57'1615.7
2014-Sep-22 03:33N 37°30' E 025°13'4 0.2
2014-Sep-21 06:14N 37°32' E 025°16'1015.4
2014-Sep-21 05:33N 37°26' E 025°06'1514.9
2014-Sep-21 04:32N 37°16' E 024°51'1515.2
2014-Sep-21 03:33N 37°07' E 024°37'  
Track history (hours):
 
Tides and Currents Weather Stations Pressure Air Temp Water Temp Dewpoint Dewpoint Depression Visibility Wind Speed Wind Dir Waves Ship Positions

Saffet Bey

Last reported at 2014-Sep-29 10:07 UTC. Time now 2014-Oct-02 16:35 UTC.
Position N 36°44' E 023°50'.

Length 164 m; draft 7 m.

Type: Cargo ship. MMSI: 271000419.

Date/timePositionNaut miles runAvg speedWind from/ knotsBaromVisibWave heightAir tempDewpointWater temp
2014-Sep-29 10:07N 36°44' E 023°50'1115.4
2014-Sep-29 09:25N 36°49' E 024°01'1315.3
2014-Sep-29 08:34N 36°57' E 024°15'1615.8
2014-Sep-29 07:32N 37°05' E 024°32'1515.4
2014-Sep-29 06:34N 37°14' E 024°47'1616.0
2014-Sep-29 05:34N 37°24' E 025°03'1716.5
2014-Sep-29 04:33N 37°34' E 025°20'1515.4
2014-Sep-29 03:34N 37°45' E 025°34'18 0.9
2014-Sep-28 07:32N 37°33' E 025°17'10 9.9
2014-Sep-28 06:33N 37°27' E 025°08'1111.5
2014-Sep-28 05:33N 37°20' E 024°56'1212.1
2014-Sep-28 04:33N 37°12' E 024°44'1311.9
2014-Sep-28 03:26N 37°04' E 024°31'1112.1
2014-Sep-28 02:33N 36°58' E 024°20'1212.2
2014-Sep-28 01:33N 36°52' E 024°07'1211.9
2014-Sep-28 00:33N 36°46' E 023°54'1312.0
2014-Sep-27 23:26N 36°39' E 023°40'  
2014-Sep-22 10:15N 36°32' E 023°26'6315.4
2014-Sep-22 06:07N 37°06' E 024°34'914.8
2014-Sep-22 05:32N 37°11' E 024°42'1515.3
2014-Sep-22 04:33N 37°20' E 024°57'1615.7
2014-Sep-22 03:33N 37°30' E 025°13'4 0.2
2014-Sep-21 06:14N 37°32' E 025°16'1015.4
2014-Sep-21 05:33N 37°26' E 025°06'1514.9
2014-Sep-21 04:32N 37°16' E 024°51'1515.2
2014-Sep-21 03:33N 37°07' E 024°37'  

Dump ship's entire track history